Time;durP1;ratioP1;P1;durP2;ratioP2;P2;SDS_P1;SDS_P2;PMS_P1;PMS_P2;Temp;Humidity;BMP_temperature;BMP_pressure;BME280_temperature;BME280_humidity;BME280_pressure;Samples;Min_cycle;Max_cycle;Signal;HPM_P1;HPM_P2
2023/10/08 00:00:45;;;;;;;11.57;3.77;;;17.70;99.90;;;;;;7290607;19;20192;-86
2023/10/08 00:03:13;;;;;;;8.33;3.57;;;17.70;99.90;;;;;;7290425;19;20182;-87
2023/10/08 00:05:43;;;;;;;9.80;3.77;;;17.70;99.90;;;;;;7290235;19;20200;-86
2023/10/08 00:08:09;;;;;;;8.20;3.13;;;17.70;99.90;;;;;;7290313;19;20189;-87
2023/10/08 00:10:45;;;;;;;10.07;3.50;;;17.70;99.90;;;;;;7290748;19;20184;-87
2023/10/08 00:13:12;;;;;;;11.33;3.70;;;17.70;99.90;;;;;;7289840;19;20698;-87
2023/10/08 00:15:49;;;;;;;10.20;3.17;;;17.60;99.90;;;;;;7289534;19;20223;-87
2023/10/08 00:18:16;;;;;;;9.23;3.70;;;17.60;99.90;;;;;;7290900;19;20197;-89
2023/10/08 00:20:47;;;;;;;9.93;3.63;;;17.50;99.90;;;;;;7289356;19;20180;-88
2023/10/08 00:23:17;;;;;;;11.33;3.53;;;17.60;99.90;;;;;;7288999;19;20186;-87
2023/10/08 00:25:47;;;;;;;9.27;3.03;;;17.60;99.90;;;;;;7289182;19;20184;-87
2023/10/08 00:28:17;;;;;;;8.07;3.40;;;17.60;99.90;;;;;;7286323;19;20545;-86
2023/10/08 00:30:44;;;;;;;10.40;3.73;;;17.50;99.90;;;;;;7287831;19;20540;-87
2023/10/08 00:33:14;;;;;;;9.37;3.60;;;17.50;99.90;;;;;;7289332;19;20643;-87
2023/10/08 00:35:41;;;;;;;7.77;3.50;;;17.50;99.90;;;;;;7288770;19;20206;-86
2023/10/08 00:38:14;;;;;;;11.03;3.50;;;17.50;99.90;;;;;;7288716;19;20649;-87
2023/10/08 00:40:45;;;;;;;8.87;3.20;;;17.40;99.90;;;;;;7288768;19;20736;-87
2023/10/08 00:43:32;;;;;;;9.80;3.57;;;17.40;99.90;;;;;;7274953;19;20224;-88
2023/10/08 00:46:17;;;;;;;8.47;3.53;;;17.40;99.90;;;;;;7186190;19;2004407;-89
2023/10/08 00:48:44;;;;;;;9.87;3.63;;;17.30;99.90;;;;;;7288665;19;20193;-88
2023/10/08 00:51:26;;;;;;;9.73;3.30;;;17.30;99.90;;;;;;7292875;19;20185;-87
2023/10/08 00:53:59;;;;;;;9.10;3.50;;;17.30;99.90;;;;;;7277699;19;20201;-87
2023/10/08 00:56:46;;;;;;;12.83;3.50;;;17.40;99.90;;;;;;7294836;19;20202;-88
2023/10/08 00:59:15;;;;;;;11.07;4.00;;;17.30;99.90;;;;;;7294122;19;20635;-88
2023/10/08 01:01:51;;;;;;;10.03;3.30;;;17.20;99.90;;;;;;7294837;19;20292;-87
2023/10/08 01:04:27;;;;;;;9.10;3.50;;;17.20;99.90;;;;;;7295430;19;20189;-88
2023/10/08 01:06:58;;;;;;;8.63;3.20;;;17.10;99.90;;;;;;7273152;19;20188;-86
2023/10/08 01:09:42;;;;;;;11.23;3.40;;;17.20;99.90;;;;;;7295205;19;20216;-86
2023/10/08 01:12:27;;;;;;;10.50;3.97;;;17.20;99.90;;;;;;7295863;19;20194;-87
2023/10/08 01:15:04;;;;;;;12.53;4.00;;;17.20;99.90;;;;;;7273153;19;20267;-87
2023/10/08 01:17:45;;;;;;;9.73;3.87;;;17.20;99.90;;;;;;7293130;19;20185;-87
2023/10/08 01:20:33;;;;;;;8.57;3.23;;;17.20;99.90;;;;;;7292826;19;20184;-88
2023/10/08 01:23:03;;;;;;;8.77;3.13;;;17.20;99.90;;;;;;7190606;19;2004127;-88
2023/10/08 01:25:30;;;;;;;11.43;3.73;;;17.10;99.90;;;;;;7293756;19;20185;-87
2023/10/08 01:28:08;;;;;;;9.13;3.70;;;17.10;99.90;;;;;;7292967;19;20196;-87
2023/10/08 01:30:41;;;;;;;11.87;3.97;;;17.00;99.90;;;;;;7293535;19;20708;-87
2023/10/08 01:33:12;;;;;;;10.97;3.70;;;17.00;99.90;;;;;;7293727;19;20649;-87
2023/10/08 01:35:40;;;;;;;10.97;3.47;;;17.00;99.90;;;;;;7293358;19;20197;-87
2023/10/08 01:38:07;;;;;;;9.97;3.60;;;16.90;99.90;;;;;;7294049;19;20206;-87
2023/10/08 01:40:33;;;;;;;10.43;3.70;;;16.90;99.90;;;;;;7291740;19;20191;-88
2023/10/08 01:43:00;;;;;;;11.70;3.93;;;16.90;99.90;;;;;;7294541;19;20199;-87
2023/10/08 01:45:31;;;;;;;14.27;3.77;;;16.80;99.90;;;;;;7296112;19;20188;-88
2023/10/08 01:48:04;;;;;;;11.77;3.57;;;16.80;99.90;;;;;;7294198;19;20268;-87
2023/10/08 01:50:30;;;;;;;9.43;3.63;;;16.80;99.90;;;;;;7293924;19;20236;-87
2023/10/08 01:53:00;;;;;;;9.83;3.70;;;16.70;99.90;;;;;;7277716;19;20189;-88
2023/10/08 01:55:30;;;;;;;8.93;3.67;;;16.60;99.90;;;;;;7292466;19;20299;-88
2023/10/08 01:58:03;;;;;;;11.37;3.57;;;16.60;99.90;;;;;;7289803;19;20208;-87
2023/10/08 02:00:29;;;;;;;11.80;3.60;;;16.60;99.90;;;;;;7292391;19;20195;-88
2023/10/08 02:02:59;;;;;;;11.37;3.80;;;16.60;99.90;;;;;;7287918;19;20256;-88
2023/10/08 02:05:30;;;;;;;8.90;3.73;;;16.50;99.90;;;;;;7294924;19;20227;-87
2023/10/08 02:07:58;;;;;;;10.20;3.83;;;16.50;99.90;;;;;;7292290;19;20205;-88
2023/10/08 02:10:25;;;;;;;12.57;3.90;;;16.60;99.90;;;;;;7293266;19;20189;-89
2023/10/08 02:12:51;;;;;;;10.27;3.53;;;16.60;99.90;;;;;;7311070;19;20185;-88
2023/10/08 02:15:51;;;;;;;9.63;3.47;;;16.60;99.90;;;;;;7305997;19;20186;-88
2023/10/08 02:18:25;;;;;;;9.87;3.73;;;16.70;99.90;;;;;;7177171;19;2004311;-89
2023/10/08 02:20:55;;;;;;;9.97;3.70;;;16.70;99.90;;;;;;7291479;19;20194;-89
2023/10/08 02:23:21;;;;;;;11.23;3.60;;;16.60;99.90;;;;;;7313994;19;20271;-88
2023/10/08 02:25:47;;;;;;;11.83;3.80;;;16.70;99.90;;;;;;7293731;19;20236;-89
2023/10/08 02:28:15;;;;;;;10.20;3.40;;;16.70;99.90;;;;;;7292483;19;20214;-88
2023/10/08 02:30:44;;;;;;;11.60;3.40;;;16.60;99.90;;;;;;7313841;19;20196;-88
2023/10/08 02:33:17;;;;;;;10.67;3.77;;;16.60;99.90;;;;;;7293574;19;20197;-89
2023/10/08 02:35:45;;;;;;;10.37;3.90;;;16.60;99.90;;;;;;7292466;19;20229;-88
2023/10/08 02:38:16;;;;;;;10.17;3.70;;;16.60;99.90;;;;;;7290993;19;20227;-88
2023/10/08 02:40:47;;;;;;;10.30;3.90;;;16.60;99.90;;;;;;7292946;19;20261;-89
2023/10/08 02:43:15;;;;;;;10.10;3.40;;;16.60;99.90;;;;;;7290727;19;20200;-88
2023/10/08 02:45:44;;;;;;;9.37;3.60;;;16.50;99.90;;;;;;7292374;19;20665;-88
2023/10/08 02:48:13;;;;;;;10.47;3.57;;;16.50;99.90;;;;;;7291671;19;20539;-88
2023/10/08 02:50:46;;;;;;;11.63;4.10;;;16.40;99.90;;;;;;7292044;19;21518;-88
2023/10/08 02:53:20;;;;;;;9.90;3.43;;;16.50;99.90;;;;;;7291603;19;20194;-89
2023/10/08 02:56:12;;;;;;;10.43;3.43;;;16.50;99.90;;;;;;7292877;19;20213;-89
2023/10/08 02:58:39;;;;;;;13.17;3.90;;;16.50;99.90;;;;;;7188901;19;2004408;-89
2023/10/08 03:01:05;;;;;;;14.30;4.00;;;16.50;99.90;;;;;;7292238;19;20242;-89
2023/10/08 03:03:36;;;;;;;12.00;3.80;;;16.50;99.90;;;;;;7290564;19;20203;-87
2023/10/08 03:06:03;;;;;;;11.37;3.80;;;16.50;99.90;;;;;;7292060;19;20664;-87
2023/10/08 03:08:31;;;;;;;8.97;3.63;;;16.60;99.90;;;;;;7291591;19;20192;-88
2023/10/08 03:11:03;;;;;;;10.00;3.40;;;16.50;99.90;;;;;;7291217;19;20669;-89
2023/10/08 03:13:38;;;;;;;9.67;3.63;;;16.50;99.90;;;;;;7290567;19;20192;-88
2023/10/08 03:16:13;;;;;;;13.90;4.07;;;16.40;99.90;;;;;;7290496;19;20197;-88
2023/10/08 03:18:49;;;;;;;10.93;3.67;;;16.40;99.90;;;;;;7277926;19;20216;-87
2023/10/08 03:21:48;;;;;;;10.80;3.77;;;16.40;99.90;;;;;;7291912;19;20244;-90
2023/10/08 03:29:44;;;;;;;8.83;3.60;;;16.20;99.90;;;;;;7290309;19;20204;-86
2023/10/08 03:32:16;;;;;;;12.03;4.60;;;16.30;99.90;;;;;;7289094;19;20190;-86
2023/10/08 03:34:54;;;;;;;10.83;3.90;;;16.30;99.90;;;;;;7289389;19;20638;-86
2023/10/08 03:37:41;;;;;;;9.27;3.77;;;16.40;99.90;;;;;;7275996;19;20184;-89
2023/10/08 03:40:25;;;;;;;12.20;3.50;;;16.40;99.90;;;;;;7187560;19;2004461;-87
2023/10/08 03:42:55;;;;;;;10.03;3.80;;;16.40;99.90;;;;;;7289895;19;20769;-86
2023/10/08 03:48:15;;;;;;;11.33;4.20;;;16.60;99.90;;;;;;7288696;19;20212;-86
2023/10/08 03:50:43;;;;;;;11.27;4.43;;;16.50;99.90;;;;;;7287999;19;20669;-87
2023/10/08 03:53:12;;;;;;;9.80;3.87;;;16.50;99.90;;;;;;7288963;19;20661;-87
2023/10/08 03:55:42;;;;;;;10.07;4.10;;;16.40;99.90;;;;;;7289714;19;20184;-87
2023/10/08 03:58:29;;;;;;;8.80;3.63;;;16.40;99.90;;;;;;7288976;19;20669;-87
2023/10/08 04:01:18;;;;;;;11.93;3.70;;;16.40;99.90;;;;;;7267782;19;20208;-87
2023/10/08 04:06:22;;;;;;;7.33;3.57;;;16.40;99.90;;;;;;7290387;19;20193;-88
2023/10/08 04:11:55;;;;;;;9.07;3.57;;;16.20;99.90;;;;;;7185762;19;2004305;-88
2023/10/08 04:14:25;;;;;;;11.93;4.00;;;16.20;99.90;;;;;;7285916;19;20530;-88
2023/10/08 04:16:51;;;;;;;11.27;4.10;;;16.20;99.90;;;;;;7310335;19;20197;-87
2023/10/08 04:19:26;;;;;;;9.90;4.47;;;16.20;99.90;;;;;;7288108;19;20203;-87
2023/10/08 04:21:56;;;;;;;10.87;4.10;;;16.10;99.90;;;;;;7278134;19;20184;-87
2023/10/08 04:24:36;;;;;;;9.47;4.10;;;16.10;99.90;;;;;;7300772;19;20195;-88
2023/10/08 04:27:08;;;;;;;12.87;4.20;;;16.10;99.90;;;;;;7295130;19;20876;-87
2023/10/08 04:29:36;;;;;;;10.73;4.03;;;16.10;99.90;;;;;;7295813;19;20185;-87
2023/10/08 04:32:11;;;;;;;15.67;3.93;;;16.10;99.90;;;;;;7294958;19;20214;-87
2023/10/08 04:34:38;;;;;;;11.27;4.20;;;16.20;99.90;;;;;;7294922;19;20195;-87
2023/10/08 04:37:11;;;;;;;8.10;3.73;;;16.30;99.90;;;;;;7295282;19;20189;-87
2023/10/08 04:39:40;;;;;;;10.33;4.10;;;16.20;99.90;;;;;;7294926;19;20199;-87
2023/10/08 04:42:10;;;;;;;9.20;4.00;;;16.20;99.90;;;;;;7294757;19;20533;-87
2023/10/08 04:44:39;;;;;;;11.03;4.00;;;16.20;99.90;;;;;;7294737;19;20192;-87
2023/10/08 04:47:31;;;;;;;11.93;4.17;;;16.10;99.90;;;;;;7294986;19;20196;-88
2023/10/08 04:49:53;;;;;;;10.33;3.90;;;16.10;99.90;;;;;;7282839;19;20196;-87
2023/10/08 04:52:19;;;;;;;11.37;4.33;;;16.10;99.90;;;;;;7315713;19;20716;-87
2023/10/08 04:54:51;;;;;;;12.27;4.17;;;16.00;99.90;;;;;;7296724;19;20209;-87
2023/10/08 04:57:22;;;;;;;10.60;4.00;;;16.00;99.90;;;;;;7295427;19;20191;-88
2023/10/08 04:59:51;;;;;;;9.80;4.30;;;16.00;99.90;;;;;;7295805;19;20189;-87
2023/10/08 05:02:34;;;;;;;10.87;4.40;;;16.00;99.90;;;;;;7297191;19;20610;-87
2023/10/08 05:15:41;;;;;;;11.37;4.47;;;16.00;99.90;;;;;;7191254;19;2004664;-87
2023/10/08 05:18:23;;;;;;;12.10;3.97;;;16.00;99.90;;;;;;7293762;19;20199;-88
2023/10/08 05:26:20;;;;;;;12.43;4.50;;;16.00;99.90;;;;;;7294392;19;20251;-87
2023/10/08 05:31:46;;;;;;;9.93;4.13;;;15.90;99.90;;;;;;7274365;19;20554;-88
2023/10/08 05:42:13;;;;;;;12.60;4.37;;;15.70;99.90;;;;;;7292341;19;20191;-88
2023/10/08 05:44:46;;;;;;;13.40;4.23;;;15.60;99.90;;;;;;7292866;19;20191;-88
2023/10/08 05:47:38;;;;;;;13.17;4.40;;;15.60;99.90;;;;;;7292970;19;20565;-87
2023/10/08 05:53:15;;;;;;;10.23;4.53;;;15.50;99.90;;;;;;7192292;19;2004435;-88
2023/10/08 05:56:01;;;;;;;11.63;4.30;;;15.50;99.90;;;;;;7295108;19;20193;-89
2023/10/08 05:58:45;;;;;;;9.20;3.80;;;15.40;99.90;;;;;;7214244;19;2020561;-88
2023/10/08 06:01:26;;;;;;;12.33;4.40;;;15.40;99.90;;;;;;7295291;19;21191;-89
2023/10/08 06:04:20;;;;;;;13.83;4.70;;;15.40;99.90;;;;;;7287885;19;20286;-88
2023/10/08 06:06:57;;;;;;;12.63;4.43;;;15.50;99.90;;;;;;7291679;19;20219;-88
2023/10/08 06:09:35;;;;;;;13.50;4.83;;;15.60;99.90;;;;;;7272504;19;20192;-88
2023/10/08 06:12:09;;;;;;;11.83;4.30;;;15.60;99.90;;;;;;7292406;19;20571;-88
2023/10/08 06:15:07;;;;;;;13.37;4.30;;;15.80;99.90;;;;;;7292340;19;20195;-88
2023/10/08 06:17:44;;;;;;;11.80;3.93;;;15.70;99.90;;;;;;7189025;19;2004565;-88
2023/10/08 06:20:25;;;;;;;12.13;4.03;;;15.80;99.90;;;;;;7292028;19;20198;-87
2023/10/08 06:23:14;;;;;;;12.17;4.07;;;15.80;99.90;;;;;;7315720;19;20223;-87
2023/10/08 06:26:38;;;;;;;13.50;4.17;;;16.00;99.90;;;;;;7316288;19;20271;-88
2023/10/08 06:28:44;;;;;;;11.97;4.90;;;16.00;99.90;;;;;;7190249;19;2004599;-88
2023/10/08 06:31:17;;;;;;;10.20;4.17;;;15.80;99.90;;;;;;7291932;19;20201;-88
2023/10/08 06:33:44;;;;;;;13.17;4.67;;;15.90;99.90;;;;;;7294708;19;20185;-89
2023/10/08 06:38:50;;;;;;;12.90;4.07;;;16.20;99.90;;;;;;7367900;19;20185;-93
2023/10/08 06:41:33;;;;;;;9.67;3.63;;;16.40;99.90;;;;;;7343636;19;20193;-90
2023/10/08 06:44:14;;;;;;;10.80;4.03;;;16.60;99.90;;;;;;7158934;19;2004374;-90
2023/10/08 06:47:09;;;;;;;12.00;4.70;;;16.80;99.90;;;;;;7292949;19;20240;-91
2023/10/08 06:53:55;;;;;;;12.37;4.33;;;17.10;99.90;;;;;;7076319;19;2004525;-93
2023/10/08 06:57:02;;;;;;;;;;;;;;;;;;;;;
2023/10/08 07:00:37;;;;;;;9.47;3.70;;;17.40;99.90;;;;;;7359808;19;20552;-91
2023/10/08 07:03:06;;;;;;;9.93;3.93;;;17.50;99.90;;;;;;7083186;19;2004446;-91
2023/10/08 07:05:40;;;;;;;9.10;4.10;;;17.50;99.90;;;;;;7334440;19;20212;-91
2023/10/08 07:08:32;;;;;;;9.47;3.87;;;17.60;99.90;;;;;;7289390;19;20190;-93
2023/10/08 07:11:54;;;;;;;8.97;3.90;;;17.80;99.90;;;;;;7208852;19;2004136;-92
2023/10/08 07:14:54;;;;;;;12.87;4.33;;;18.00;99.90;;;;;;7385338;19;20168;-94
2023/10/08 07:18:31;;;;;;;11.30;4.40;;;18.20;99.90;;;;;;7271807;19;20226;-92
2023/10/08 07:21:56;;;;;;;14.97;5.00;;;18.50;99.90;;;;;;7085464;19;2004554;-93
2023/10/08 07:25:37;;;;;;;9.37;4.20;;;18.80;99.90;;;;;;7379524;19;20157;-92
2023/10/08 07:44:54;;;;;;;12.83;4.57;;;21.30;99.90;;;;;;7397775;19;20246;-86
2023/10/08 07:48:14;;;;;;;11.97;4.97;;;21.80;99.90;;;;;;7400793;19;20168;-89
2023/10/08 07:54:16;;;;;;;10.43;4.40;;;21.60;99.90;;;;;;7394245;19;20224;-91
2023/10/08 07:56:59;;;;;;;9.23;4.43;;;21.40;99.90;;;;;;7399112;19;20159;-90
2023/10/08 07:59:38;;;;;;;11.77;4.67;;;21.30;99.90;;;;;;7397985;19;20569;-89
2023/10/08 08:10:17;;;;;;;16.63;4.67;;;21.00;99.90;;;;;;7400427;19;20143;-90
2023/10/08 08:13:59;;;;;;;14.80;4.70;;;20.90;99.90;;;;;;7404087;19;20160;-91
2023/10/08 08:20:50;;;;;;;11.00;4.27;;;21.20;99.90;;;;;;7406798;19;20155;-91
2023/10/08 08:34:23;;;;;;;9.80;4.80;;;21.60;99.90;;;;;;7404656;19;20207;-90
2023/10/08 08:37:53;;;;;;;14.47;4.90;;;21.70;99.90;;;;;;7403323;19;20185;-91
2023/10/08 08:45:08;;;;;;;15.60;6.17;;;21.80;99.90;;;;;;7406930;19;20151;-90
2023/10/08 08:48:30;;;;;;;13.43;6.77;;;21.70;99.90;;;;;;7406747;19;20629;-89
2023/10/08 08:51:09;;;;;;;16.80;7.60;;;21.80;99.90;;;;;;7407656;19;20167;-90
2023/10/08 08:53:56;;;;;;;;;;;;;;;;;;;;;
2023/10/08 08:56:50;;;;;;;14.50;5.40;;;21.70;99.90;;;;;;7407658;19;20154;-92
2023/10/08 09:04:37;;;;;;;12.03;5.27;;;21.80;99.90;;;;;;7415758;19;20135;-90
2023/10/08 09:11:40;;;;;;;12.07;4.90;;;22.10;99.90;;;;;;7404821;19;20170;-91
2023/10/08 09:14:49;;;;;;;10.90;5.07;;;22.40;99.90;;;;;;7406345;19;20172;-89
2023/10/08 09:17:55;;;;;;;14.43;5.37;;;22.50;99.90;;;;;;7409696;19;20487;-89
2023/10/08 09:21:11;;;;;;;12.27;4.80;;;22.70;99.90;;;;;;7408522;19;20164;-91
2023/10/08 09:24:25;;;;;;;12.40;4.67;;;22.90;99.90;;;;;;7407577;19;20153;-90
2023/10/08 09:27:37;;;;;;;14.90;4.37;;;23.30;99.90;;;;;;7406177;19;20216;-89
2023/10/08 09:30:49;;;;;;;13.63;5.00;;;23.50;99.90;;;;;;7398043;19;20181;-90
2023/10/08 09:34:07;;;;;;;13.77;5.13;;;23.50;99.90;;;;;;7402120;19;20156;-91
2023/10/08 09:37:39;;;;;;;13.67;4.93;;;23.40;99.90;;;;;;7407773;19;20175;-91
2023/10/08 09:40:48;;;;;;;11.23;4.90;;;23.60;99.90;;;;;;7407392;19;20153;-91
2023/10/08 09:43:50;;;;;;;12.57;5.27;;;23.90;99.90;;;;;;7401791;19;20225;-90
2023/10/08 09:47:14;;;;;;;16.80;5.33;;;24.20;99.90;;;;;;7403604;19;20174;-89
2023/10/08 09:57:55;;;;;;;13.70;5.60;;;25.80;99.90;;;;;;7404400;19;20153;-91
2023/10/08 10:00:52;;;;;;;16.17;5.50;;;26.00;99.90;;;;;;7404910;19;20170;-90
2023/10/08 10:07:22;;;;;;;12.07;5.30;;;28.60;99.90;;;;;;7408491;19;20514;-91
2023/10/08 10:10:53;;;;;;;15.82;5.40;;;29.80;99.90;;;;;;7401005;19;20140;-90
2023/10/08 10:26:23;;;;;;;15.85;5.32;;;29.90;99.90;;;;;;7400119;19;20146;-89
2023/10/08 10:34:11;;;;;;;17.52;5.55;;;29.90;99.90;;;;;;7402374;19;20150;-89
2023/10/08 10:37:51;;;;;;;;;;;;;;;;;;;;;
2023/10/08 10:48:36;;;;;;;14.70;5.40;;;32.60;99.90;;;;;;7399958;19;20144;-90
2023/10/08 10:51:29;;;;;;;14.50;5.85;;;32.70;99.90;;;;;;7402317;19;20163;-90
2023/10/08 10:54:07;;;;;;;12.70;5.53;;;32.40;99.90;;;;;;7400901;19;20173;-90
2023/10/08 11:17:57;;;;;;;23.35;11.63;;;32.30;99.90;;;;;;7310056;19;20256;-92
2023/10/08 11:20:26;;;;;;;16.70;9.38;;;33.00;99.90;;;;;;7309107;19;20189;-92
2023/10/08 11:22:55;;;;;;;18.15;6.85;;;33.20;99.90;;;;;;7310503;19;20652;-93
2023/10/08 11:25:30;;;;;;;13.60;5.43;;;33.80;99.90;;;;;;7288873;19;20189;-93
2023/10/08 11:28:08;;;;;;;12.38;5.25;;;34.40;99.40;;;;;;7266289;19;20189;-93
2023/10/08 11:30:35;;;;;;;13.48;4.82;;;34.70;98.80;;;;;;7297318;19;20188;-91
2023/10/08 11:33:01;;;;;;;12.27;5.45;;;34.60;97.60;;;;;;7287816;19;20180;-90
2023/10/08 11:35:28;;;;;;;13.60;5.82;;;34.10;96.90;;;;;;7289610;19;20193;-92
2023/10/08 11:38:00;;;;;;;12.18;4.97;;;33.90;97.80;;;;;;7302366;19;20188;-91
2023/10/08 11:40:48;;;;;;;11.55;5.10;;;34.00;97.30;;;;;;7288706;19;20199;-91
2023/10/08 11:43:17;;;;;;;13.13;5.47;;;34.10;96.50;;;;;;7289940;19;20182;-93
2023/10/08 11:45:48;;;;;;;12.48;5.05;;;34.40;95.00;;;;;;7287090;19;20210;-90
2023/10/08 11:48:17;;;;;;;14.50;5.80;;;34.50;95.30;;;;;;7287304;19;20377;-91
2023/10/08 11:50:43;;;;;;;13.30;6.10;;;34.40;94.00;;;;;;7286878;19;20202;-92
2023/10/08 11:53:11;;;;;;;10.98;5.80;;;34.30;95.10;;;;;;7286951;19;20195;-92
2023/10/08 11:55:38;;;;;;;11.82;5.30;;;34.50;93.60;;;;;;7286099;19;20196;-91
2023/10/08 11:58:11;;;;;;;13.23;5.50;;;34.60;94.40;;;;;;7287152;19;20222;-91
2023/10/08 12:00:44;;;;;;;13.93;5.80;;;34.60;93.40;;;;;;7286303;19;20200;-90
2023/10/08 12:03:20;;;;;;;14.68;5.22;;;34.40;93.00;;;;;;7286550;19;20214;-92
2023/10/08 12:05:50;;;;;;;12.48;5.90;;;33.60;93.40;;;;;;7286893;19;20199;-90
2023/10/08 12:08:18;;;;;;;13.65;5.97;;;33.50;93.50;;;;;;7285093;19;20672;-90
2023/10/08 12:10:45;;;;;;;11.90;5.30;;;33.20;94.10;;;;;;7287732;19;20200;-91
2023/10/08 12:13:12;;;;;;;15.13;5.75;;;33.30;94.60;;;;;;7286163;19;20555;-91
2023/10/08 12:15:44;;;;;;;15.57;5.88;;;33.50;93.50;;;;;;7286947;19;20203;-92
2023/10/08 12:18:26;;;;;;;15.50;6.20;;;33.70;94.30;;;;;;7286149;19;20691;-91
2023/10/08 12:20:53;;;;;;;13.65;6.20;;;33.70;93.40;;;;;;7285697;19;20185;-91
2023/10/08 12:23:25;;;;;;;15.15;6.22;;;33.60;92.90;;;;;;7286220;19;20185;-91
2023/10/08 12:25:55;;;;;;;12.95;5.63;;;33.10;93.80;;;;;;7288795;19;20188;-92
2023/10/08 12:28:23;;;;;;;13.75;5.95;;;32.70;93.30;;;;;;7285701;19;20217;-92
2023/10/08 12:30:52;;;;;;;10.68;5.40;;;32.20;93.10;;;;;;7285098;19;20609;-92
2023/10/08 12:33:24;;;;;;;11.75;5.82;;;32.00;94.60;;;;;;7284417;19;20644;-91
2023/10/08 12:35:55;;;;;;;13.13;6.15;;;32.10;94.80;;;;;;7282415;19;20189;-91
2023/10/08 12:38:27;;;;;;;14.23;5.80;;;32.10;95.20;;;;;;7286138;19;20195;-91
2023/10/08 12:40:54;;;;;;;15.38;6.28;;;32.30;95.30;;;;;;7282340;19;20195;-92
2023/10/08 12:43:20;;;;;;;14.18;6.55;;;32.60;94.90;;;;;;7306983;19;20284;-91
2023/10/08 12:45:52;;;;;;;13.90;6.18;;;32.70;93.40;;;;;;7284645;19;20677;-91
2023/10/08 12:48:24;;;;;;;13.02;6.55;;;32.50;93.60;;;;;;7293456;19;20201;-92
2023/10/08 12:50:53;;;;;;;11.55;6.30;;;32.20;93.50;;;;;;7291756;19;20185;-91
2023/10/08 12:53:23;;;;;;;15.13;6.28;;;32.30;94.60;;;;;;7293963;19;20227;-91
2023/10/08 12:55:53;;;;;;;13.88;6.15;;;32.10;94.00;;;;;;7293312;19;20185;-92
2023/10/08 12:58:23;;;;;;;14.40;6.82;;;31.80;95.10;;;;;;7293140;19;20196;-91
2023/10/08 13:00:56;;;;;;;14.27;6.47;;;31.60;94.60;;;;;;7292915;19;20192;-90
2023/10/08 13:03:23;;;;;;;14.15;7.00;;;31.30;94.80;;;;;;7292256;19;20192;-91
2023/10/08 13:05:52;;;;;;;16.85;6.78;;;30.90;96.00;;;;;;7292044;19;20198;-91
2023/10/08 13:08:21;;;;;;;15.90;6.43;;;30.60;96.20;;;;;;7291517;19;20185;-90
2023/10/08 13:10:47;;;;;;;13.82;6.57;;;30.00;96.30;;;;;;7291246;19;20193;-91
2023/10/08 13:13:13;;;;;;;15.80;6.20;;;29.90;97.10;;;;;;7290147;19;20189;-92
2023/10/08 13:15:41;;;;;;;14.13;6.22;;;29.60;97.10;;;;;;7288813;19;20192;-90
2023/10/08 13:18:08;;;;;;;13.90;5.55;;;29.30;97.00;;;;;;7291670;19;20192;-89
2023/10/08 13:20:34;;;;;;;14.10;5.68;;;29.10;98.00;;;;;;7298315;19;20282;-90
2023/10/08 13:23:06;;;;;;;12.90;6.22;;;28.80;98.00;;;;;;7291596;19;20529;-91
2023/10/08 13:25:35;;;;;;;13.25;5.55;;;28.60;98.90;;;;;;7290818;19;20254;-91
2023/10/08 13:28:02;;;;;;;14.25;5.82;;;28.30;98.00;;;;;;7289023;19;20185;-91
2023/10/08 13:30:28;;;;;;;14.35;5.55;;;28.10;99.70;;;;;;7291277;19;20278;-91
2023/10/08 13:32:53;;;;;;;14.65;5.53;;;28.00;99.90;;;;;;7307060;19;20280;-91
2023/10/08 13:35:20;;;;;;;12.35;5.15;;;27.80;99.90;;;;;;7303958;19;20184;-90
2023/10/08 13:37:48;;;;;;;11.40;5.05;;;27.80;99.90;;;;;;7290878;19;20267;-90
2023/10/08 13:40:15;;;;;;;16.05;5.40;;;27.70;99.90;;;;;;7290219;19;20222;-91
2023/10/08 13:42:44;;;;;;;13.57;5.85;;;27.60;99.90;;;;;;7290092;19;20189;-91
2023/10/08 13:45:16;;;;;;;13.23;5.35;;;27.50;99.90;;;;;;7291693;19;20191;-90
2023/10/08 13:47:42;;;;;;;14.35;5.65;;;27.30;99.90;;;;;;7290048;19;20282;-91
2023/10/08 13:50:10;;;;;;;13.45;5.25;;;27.20;99.90;;;;;;7291678;19;20181;-91
2023/10/08 13:52:38;;;;;;;12.02;5.30;;;26.80;99.90;;;;;;7289528;19;20654;-90
2023/10/08 13:55:13;;;;;;;13.02;5.68;;;26.80;99.90;;;;;;7291107;19;20192;-90
2023/10/08 13:57:42;;;;;;;14.63;5.53;;;26.60;99.90;;;;;;7288406;19;20188;-90
2023/10/08 14:00:15;;;;;;;13.23;5.88;;;26.60;99.90;;;;;;7288242;19;20225;-90
2023/10/08 14:02:44;;;;;;;14.02;5.45;;;26.70;99.90;;;;;;7293593;19;20189;-91
2023/10/08 14:05:15;;;;;;;10.90;5.15;;;26.70;99.90;;;;;;7293902;19;20189;-91
2023/10/08 14:07:44;;;;;;;15.15;5.03;;;26.70;99.90;;;;;;7295885;19;20213;-90
2023/10/08 14:10:18;;;;;;;13.95;5.32;;;26.60;99.90;;;;;;7290028;19;20192;-90
2023/10/08 14:12:49;;;;;;;14.98;5.20;;;26.60;99.90;;;;;;7289825;19;20201;-92
2023/10/08 14:15:17;;;;;;;18.20;5.60;;;26.50;99.90;;;;;;7290521;19;20190;-92
2023/10/08 14:17:53;;;;;;;13.70;5.72;;;26.50;99.90;;;;;;7288943;19;20221;-90
2023/10/08 14:20:23;;;;;;;14.05;5.78;;;26.40;99.90;;;;;;7289640;19;20280;-91
2023/10/08 14:22:57;;;;;;;11.68;5.20;;;26.30;99.90;;;;;;7288956;19;20188;-90
2023/10/08 14:25:27;;;;;;;17.90;5.65;;;26.20;99.90;;;;;;7291452;19;20256;-90
2023/10/08 14:27:53;;;;;;;13.32;5.22;;;26.20;99.90;;;;;;7288113;19;20218;-90
2023/10/08 14:30:25;;;;;;;14.52;5.63;;;26.30;99.90;;;;;;7310820;19;20220;-91
2023/10/08 14:32:50;;;;;;;13.63;5.55;;;26.20;99.90;;;;;;7288186;19;20610;-90
2023/10/08 14:43:34;;;;;;;11.82;4.90;;;26.20;99.90;;;;;;7186973;19;2004661;-90
2023/10/08 14:46:08;;;;;;;13.23;5.50;;;26.20;99.90;;;;;;7288290;19;20189;-91
2023/10/08 14:48:35;;;;;;;12.85;5.55;;;26.10;99.90;;;;;;7289115;19;20220;-90
2023/10/08 14:51:02;;;;;;;13.63;5.40;;;26.10;99.90;;;;;;7289379;19;20210;-91
2023/10/08 14:53:31;;;;;;;12.35;5.20;;;26.10;99.90;;;;;;7288022;19;20189;-90
2023/10/08 14:55:57;;;;;;;13.48;5.40;;;26.10;99.90;;;;;;7287067;19;20192;-90
2023/10/08 14:58:23;;;;;;;11.75;5.20;;;26.10;99.90;;;;;;7311568;19;20711;-90
2023/10/08 15:00:49;;;;;;;12.50;5.03;;;25.90;99.90;;;;;;7289103;19;20192;-90
2023/10/08 15:03:15;;;;;;;10.88;4.85;;;25.90;99.90;;;;;;7292659;19;20215;-91
2023/10/08 15:05:41;;;;;;;12.38;4.55;;;25.70;99.90;;;;;;7289659;19;20196;-90
2023/10/08 15:08:09;;;;;;;12.52;4.55;;;25.80;99.90;;;;;;7288957;19;20188;-90
2023/10/08 15:10:35;;;;;;;11.65;4.60;;;25.60;99.90;;;;;;7287795;19;20193;-91
2023/10/08 15:13:01;;;;;;;10.73;4.68;;;25.60;99.90;;;;;;7287018;19;20216;-91
2023/10/08 15:15:34;;;;;;;18.30;5.00;;;25.70;99.90;;;;;;7287816;19;20200;-90
2023/10/08 15:18:02;;;;;;;11.68;4.63;;;25.70;99.90;;;;;;7287400;19;20204;-90
2023/10/08 15:20:30;;;;;;;12.00;4.50;;;25.70;99.90;;;;;;7286666;19;20215;-92
2023/10/08 15:22:56;;;;;;;13.45;4.63;;;25.80;99.90;;;;;;7287878;19;20192;-91
2023/10/08 15:25:22;;;;;;;11.55;4.85;;;25.80;99.90;;;;;;7309301;19;20193;-91
2023/10/08 15:27:48;;;;;;;11.68;4.40;;;25.80;99.90;;;;;;7286594;19;20236;-91
2023/10/08 15:30:17;;;;;;;13.65;4.50;;;25.70;99.90;;;;;;7288034;19;20658;-92
2023/10/08 15:32:44;;;;;;;11.85;4.50;;;25.60;99.90;;;;;;7288324;19;20656;-92
2023/10/08 15:35:14;;;;;;;12.27;4.55;;;25.50;99.90;;;;;;7288168;19;20695;-91
2023/10/08 15:37:41;;;;;;;12.85;5.20;;;25.40;99.90;;;;;;7288720;19;20272;-91
2023/10/08 15:40:08;;;;;;;11.13;4.43;;;25.40;99.90;;;;;;7287779;19;20251;-92
2023/10/08 15:42:35;;;;;;;10.43;4.88;;;25.30;99.90;;;;;;7287623;19;20208;-92
2023/10/08 15:45:02;;;;;;;10.05;4.65;;;25.30;99.90;;;;;;7287195;19;20193;-92
2023/10/08 15:47:30;;;;;;;15.45;5.13;;;25.30;99.90;;;;;;7286827;19;20193;-91
2023/10/08 15:49:58;;;;;;;12.38;4.85;;;25.20;99.90;;;;;;7287256;19;20192;-91
2023/10/08 15:52:25;;;;;;;12.50;4.47;;;25.30;99.90;;;;;;7304984;19;20209;-91
2023/10/08 15:54:51;;;;;;;11.05;4.97;;;25.20;99.90;;;;;;7309550;19;20212;-91
2023/10/08 15:57:17;;;;;;;10.40;4.80;;;25.20;99.90;;;;;;7286572;19;20279;-92
2023/10/08 15:59:42;;;;;;;11.30;4.35;;;25.20;99.90;;;;;;7286038;19;20188;-91
2023/10/08 16:02:08;;;;;;;10.75;4.25;;;25.10;99.90;;;;;;7286209;19;20500;-91
2023/10/08 16:04:34;;;;;;;12.15;4.80;;;25.10;99.90;;;;;;7289895;19;20600;-91
2023/10/08 16:07:00;;;;;;;11.63;4.70;;;25.00;99.90;;;;;;7294384;19;20243;-92
2023/10/08 16:09:26;;;;;;;11.88;4.75;;;25.00;99.90;;;;;;7294622;19;20211;-91
2023/10/08 16:11:51;;;;;;;10.38;4.57;;;25.00;99.90;;;;;;7318819;19;20196;-91
2023/10/08 16:14:17;;;;;;;11.52;4.90;;;24.90;99.90;;;;;;7296177;19;20696;-91
2023/10/08 16:16:47;;;;;;;11.18;4.75;;;24.90;99.90;;;;;;7294118;19;20196;-90
2023/10/08 16:19:17;;;;;;;11.35;4.65;;;24.90;99.90;;;;;;7293710;19;20188;-89
2023/10/08 16:21:44;;;;;;;11.82;4.80;;;24.80;99.90;;;;;;7298926;19;20203;-89